Aeroporto :
LOGIN :

Iscrizione | Disclaimer

   EN    FR    IT 

 










Sommario :    VFR   VFR Marginale   IFR   IFR Intensivo   IFR Molto Intensivo
Visibilità : 
Base nubi : 
>= 8 km
>= 3000ft
5 / 8 km
1000 / 3000 ft
1500m / 5 km
500 / 1000 ft
800 / 1500m
200 / 500 ft
< 800m
< 200 ft
Simboli :   Temporali  Nebbia  Neve Forte  Precipitazioni Forti  Vento > 20 kt
SIGMETs :   Varie  Temporali  Ghiacco  Turbolenza  Onda orograficha  Ceneri Vulcaniche







- Altitudine del aeroporto : 2356 ft


LZTT - Poprad Tatry

ULTIMO METAR :
  • 231030Z 18003KT 130V240 9999 -RA FEW012 OVC036 07/04 Q1019 NOSIG

METARs OBSOLETI :
  • 231000Z 15003KT 120V190 9999 FEW012 OVC036 07/04 Q1019 NOSIG
  • 230930Z 11005KT 9999 FEW012 OVC036 07/04 Q1020 NOSIG
  • 230900Z 14004KT 090V190 9999 FEW012 OVC030 06/04 Q1019 NOSIG
  • 230830Z 11004KT 090V170 9999 FEW011 OVC020 06/04 Q1019 NOSIG
  • 230800Z 09004KT 060V120 9999 SCT011 OVC020 05/04 Q1019 NOSIG

TAF AMD TAF LZTT
Valido dal 23 a 07 ore il 24 a 06 ore UTC


230728Z 2307/2406 09007KT 9999 SCT010 OVC025
TEMPO 2307/2309 BKN009 OVC020
BECMG 2310/2312 SCT040 BKN065
BECMG 2318/2320 VRB02KT -RA
Nessun NOTAM noto per questo aeroporto.



MetMap, La meteo Aeronautica in un colpo d'occhio ! - Copyright ORBIFLY Dicembre 2007 - Disclaimer

ORBIFLY MET'MAP TEAM :

Programmazione e sviluppo : Alexandra Zaïnal
Concezione e sviluppo : Baudouin d'Aumeries
Co-Programmazione e sviluppo : Marc-Olivier Méhu
Supporto tecnico e logistico : Manuel Goepfert
Aiuto per la traduzione : Arnaldo La Scala

Contatto : metmap@orbifly.com




FONTI E CREDITI :

   NOAA